createdAt,value
2018-01-21T00:00:27.142Z,8.30
2018-01-21T00:02:55.356Z,8.40
2018-01-21T00:05:22.783Z,8.40
2018-01-21T00:07:51.093Z,8.50
2018-01-21T00:10:18.493Z,8.50
2018-01-21T00:12:45.928Z,8.40
2018-01-21T00:15:13.361Z,8.20
2018-01-21T00:17:40.796Z,8.20
2018-01-21T00:20:08.231Z,8.30
2018-01-21T00:22:41.438Z,8.50
2018-01-21T00:25:08.885Z,8.50
2018-01-21T00:27:37.077Z,8.60
2018-01-21T00:30:04.496Z,8.50
2018-01-21T00:32:31.924Z,8.60
2018-01-21T00:34:59.364Z,8.70
2018-01-21T00:37:26.796Z,8.80
2018-01-21T00:39:54.217Z,8.70
2018-01-21T00:42:21.653Z,8.10
2018-01-21T00:44:49.075Z,7.60
2018-01-21T00:47:16.510Z,7.90
2018-01-21T00:49:44.699Z,8.00
2018-01-21T00:52:12.888Z,7.70
2018-01-21T00:54:40.331Z,7.70
2018-01-21T00:57:08.524Z,7.80
2018-01-21T00:59:35.959Z,7.80
2018-01-21T01:02:04.173Z,7.80
2018-01-21T01:04:31.601Z,7.70
2018-01-21T01:06:59.052Z,7.70
2018-01-21T01:09:26.483Z,7.80
2018-01-21T01:11:53.928Z,7.50
2018-01-21T01:14:21.369Z,7.30
2018-01-21T01:16:48.794Z,7.00
2018-01-21T01:19:16.219Z,7.20
2018-01-21T01:21:44.422Z,7.20
2018-01-21T01:24:11.854Z,7.20
2018-01-21T01:26:40.048Z,6.90
2018-01-21T01:29:07.501Z,6.90
2018-01-21T01:31:34.935Z,7.00
2018-01-21T01:34:02.366Z,6.90
2018-01-21T01:36:29.784Z,6.40
2018-01-21T01:38:57.212Z,6.70
2018-01-21T01:41:25.413Z,6.80
2018-01-21T01:43:52.844Z,6.80
2018-01-21T01:46:21.500Z,6.70
2018-01-21T01:48:54.905Z,6.60
2018-01-21T01:51:22.336Z,6.30
2018-01-21T01:53:49.784Z,6.50
2018-01-21T01:56:17.200Z,6.40
2018-01-21T01:58:45.411Z,6.50
2018-01-21T02:01:12.844Z,6.50
2018-01-21T02:03:41.078Z,6.80
2018-01-21T02:06:08.489Z,6.70
2018-01-21T02:08:35.916Z,7.00
2018-01-21T02:11:03.368Z,6.70
2018-01-21T02:13:30.800Z,6.60
2018-01-21T02:15:58.219Z,6.60
2018-01-21T02:18:25.663Z,6.50
2018-01-21T02:20:53.859Z,6.60
2018-01-21T02:23:21.287Z,6.60
2018-01-21T02:25:49.475Z,6.70
2018-01-21T02:28:16.920Z,6.60
2018-01-21T02:30:45.132Z,6.90
2018-01-21T02:33:12.561Z,6.90
2018-01-21T02:35:40.753Z,7.50
2018-01-21T02:38:08.196Z,7.50
2018-01-21T02:40:35.642Z,6.80
2018-01-21T02:43:03.061Z,6.60
2018-01-21T02:45:30.517Z,6.70
2018-01-21T02:47:57.949Z,7.10
2018-01-21T02:50:25.417Z,7.20
2018-01-21T02:52:52.862Z,6.80
2018-01-21T02:55:20.280Z,6.90
2018-01-21T02:57:48.480Z,7.20
2018-01-21T03:00:15.912Z,7.20
2018-01-21T03:02:44.108Z,6.40
2018-01-21T03:05:11.544Z,6.40
2018-01-21T03:07:39.761Z,6.50
2018-01-21T03:10:07.191Z,6.50
2018-01-21T03:12:35.379Z,6.30
2018-01-21T03:15:02.811Z,6.20
2018-01-21T03:17:31.004Z,6.50
2018-01-21T03:19:58.435Z,6.40
2018-01-21T03:22:26.644Z,6.40
2018-01-21T03:24:54.080Z,6.40
2018-01-21T03:27:22.538Z,6.80
2018-01-21T03:29:49.951Z,6.80
2018-01-21T03:32:17.381Z,6.30
2018-01-21T03:34:45.582Z,6.60
2018-01-21T03:37:13.026Z,6.60
2018-01-21T03:39:40.476Z,7.00
2018-01-21T03:42:08.672Z,6.90
2018-01-21T03:44:36.118Z,6.90
2018-01-21T03:47:03.541Z,6.20
2018-01-21T03:49:30.972Z,6.20
2018-01-21T03:51:58.408Z,6.30
2018-01-21T03:54:25.873Z,5.80
2018-01-21T03:56:53.288Z,6.00
2018-01-21T03:59:21.472Z,6.20
2018-01-21T04:01:48.925Z,6.20
2018-01-21T04:04:17.153Z,6.20
2018-01-21T04:06:44.579Z,6.20
2018-01-21T04:09:12.008Z,6.30
2018-01-21T04:11:40.432Z,6.00
2018-01-21T04:14:07.885Z,6.00
2018-01-21T04:16:35.311Z,6.10
2018-01-21T04:19:02.803Z,5.90
2018-01-21T04:21:30.232Z,5.60
2018-01-21T04:23:57.675Z,6.00
2018-01-21T04:26:25.888Z,5.70
2018-01-21T04:28:53.322Z,5.60
2018-01-21T04:31:20.745Z,5.70
2018-01-21T04:33:48.164Z,6.00
2018-01-21T04:36:15.606Z,6.30
2018-01-21T04:38:43.030Z,6.30
2018-01-21T04:41:11.245Z,6.50
2018-01-21T04:43:38.680Z,6.50
2018-01-21T04:46:06.164Z,6.50
2018-01-21T04:48:33.612Z,6.60
2018-01-21T04:51:01.049Z,6.60
2018-01-21T04:53:28.475Z,6.60
2018-01-21T04:55:55.922Z,6.50
2018-01-21T04:58:23.341Z,6.60
2018-01-21T05:00:50.777Z,6.30
2018-01-21T05:03:18.200Z,6.30
2018-01-21T05:05:45.634Z,6.30
2018-01-21T05:08:13.056Z,6.50
2018-01-21T05:10:40.479Z,6.60
2018-01-21T05:13:08.672Z,6.30
2018-01-21T05:15:36.885Z,6.30
2018-01-21T05:18:04.316Z,6.30
2018-01-21T05:20:31.772Z,5.90
2018-01-21T05:22:59.953Z,6.30
2018-01-21T05:25:27.381Z,6.30
2018-01-21T05:27:56.088Z,6.60
2018-01-21T05:30:23.612Z,6.60
2018-01-21T05:32:51.028Z,6.70
2018-01-21T05:35:18.445Z,6.40
2018-01-21T05:37:46.662Z,6.80
2018-01-21T05:40:14.097Z,6.80
2018-01-21T05:42:41.545Z,6.50
2018-01-21T05:45:08.980Z,6.20
2018-01-21T05:47:36.399Z,6.30
2018-01-21T05:50:03.840Z,6.60
2018-01-21T05:52:31.272Z,6.40
2018-01-21T05:54:59.472Z,5.90
2018-01-21T05:57:26.906Z,5.90
2018-01-21T05:59:54.363Z,5.90
2018-01-21T06:02:21.792Z,5.70
2018-01-21T06:04:49.219Z,6.10
2018-01-21T06:07:16.641Z,6.20
2018-01-21T06:09:44.080Z,6.50
2018-01-21T06:12:12.837Z,6.40
2018-01-21T06:14:40.249Z,6.40
2018-01-21T06:17:07.682Z,6.10
2018-01-21T06:19:35.876Z,6.00
2018-01-21T06:22:03.309Z,6.00
2018-01-21T06:24:31.508Z,5.40
2018-01-21T06:26:58.984Z,5.40
2018-01-21T06:29:26.388Z,5.40
2018-01-21T06:31:53.841Z,5.70
2018-01-21T06:34:21.265Z,6.10
2018-01-21T06:36:48.702Z,6.00
2018-01-21T06:39:16.116Z,5.80
2018-01-21T06:41:43.549Z,6.20
2018-01-21T06:44:10.978Z,6.40
2018-01-21T06:46:38.409Z,6.40
2018-01-21T06:49:06.625Z,6.60
2018-01-21T06:51:34.056Z,6.60
2018-01-21T06:54:01.489Z,6.80
2018-01-21T06:56:30.600Z,6.50
2018-01-21T06:58:58.038Z,6.50
2018-01-21T07:01:25.465Z,6.50
2018-01-21T07:03:52.894Z,6.60
2018-01-21T07:06:20.323Z,6.50
2018-01-21T07:08:47.756Z,6.20
2018-01-21T07:11:16.104Z,6.40
2018-01-21T07:13:43.545Z,6.50
2018-01-21T07:16:10.977Z,6.30
2018-01-21T07:18:39.171Z,6.60
2018-01-21T07:21:06.601Z,6.60
2018-01-21T07:23:34.788Z,6.40
2018-01-21T07:26:02.245Z,6.40
2018-01-21T07:28:29.866Z,6.70
2018-01-21T07:30:57.297Z,6.60
2018-01-21T07:33:24.724Z,6.70
2018-01-21T07:35:52.168Z,6.40
2018-01-21T07:38:20.389Z,6.50
2018-01-21T07:40:47.856Z,6.50
2018-01-21T07:43:15.272Z,6.50
2018-01-21T07:45:42.699Z,6.50
2018-01-21T07:48:10.895Z,7.00
2018-01-21T07:50:39.128Z,6.80
2018-01-21T07:53:06.566Z,6.80
2018-01-21T07:55:33.988Z,6.70
2018-01-21T07:58:01.442Z,6.80
2018-01-21T08:00:30.548Z,6.50
2018-01-21T08:02:57.981Z,6.50
2018-01-21T08:05:26.168Z,6.60
2018-01-21T08:07:54.376Z,6.40
2018-01-21T08:10:21.828Z,6.40
2018-01-21T08:12:49.264Z,6.40
2018-01-21T08:15:16.717Z,6.80
2018-01-21T08:17:44.919Z,6.40
2018-01-21T08:20:12.345Z,6.30
2018-01-21T08:22:40.551Z,6.20
2018-01-21T08:25:07.996Z,6.20
2018-01-21T08:27:35.421Z,6.60
2018-01-21T08:30:03.619Z,6.80
2018-01-21T08:32:31.056Z,6.80
2018-01-21T08:35:04.913Z,6.90
2018-01-21T08:37:38.056Z,6.90
2018-01-21T08:40:11.926Z,6.90
2018-01-21T08:42:49.266Z,6.90
2018-01-21T08:45:17.454Z,6.40
2018-01-21T08:47:44.880Z,6.40
2018-01-21T08:50:13.084Z,6.80
2018-01-21T08:52:40.512Z,6.70
2018-01-21T08:55:08.707Z,7.30
2018-01-21T08:57:36.168Z,7.30
2018-01-21T09:00:03.596Z,7.30
2018-01-21T09:02:31.029Z,7.70
2018-01-21T09:04:58.459Z,7.50
2018-01-21T09:07:25.899Z,7.60
2018-01-21T09:09:53.324Z,7.60
2018-01-21T09:12:20.752Z,7.20
2018-01-21T09:14:48.189Z,6.90
2018-01-21T09:17:15.621Z,6.80
2018-01-21T09:19:43.060Z,7.00
2018-01-21T09:22:10.510Z,7.10
2018-01-21T09:24:37.944Z,7.40
2018-01-21T09:27:05.380Z,7.50
2018-01-21T09:29:32.832Z,7.00
2018-01-21T09:32:00.257Z,6.70
2018-01-21T09:34:28.473Z,6.80
2018-01-21T09:36:55.907Z,6.80
2018-01-21T09:39:23.343Z,7.20
2018-01-21T09:41:51.540Z,7.50
2018-01-21T09:44:18.990Z,7.50
2018-01-21T09:46:46.429Z,7.00
2018-01-21T09:49:14.625Z,7.20
2018-01-21T09:51:42.060Z,7.10
2018-01-21T09:54:10.867Z,7.00
2018-01-21T09:56:39.077Z,7.10
2018-01-21T09:59:06.525Z,7.10
2018-01-21T10:01:33.961Z,7.30
2018-01-21T10:04:01.398Z,7.50
2018-01-21T10:06:28.840Z,7.80
2018-01-21T10:08:56.281Z,7.70
2018-01-21T10:11:23.731Z,8.00
2018-01-21T10:13:51.157Z,8.00
2018-01-21T10:16:18.580Z,7.60
2018-01-21T10:18:47.137Z,7.50
2018-01-21T10:21:15.488Z,7.40
2018-01-21T10:23:42.912Z,7.50
2018-01-21T10:26:11.107Z,7.50
2018-01-21T10:28:38.565Z,7.50
2018-01-21T10:31:06.004Z,7.80
2018-01-21T10:33:34.207Z,8.20
2018-01-21T10:36:01.629Z,8.20
2018-01-21T10:38:30.748Z,8.30
2018-01-21T10:40:58.181Z,8.20
2018-01-21T10:43:26.380Z,8.50
2018-01-21T10:45:53.804Z,8.50
2018-01-21T10:48:21.238Z,8.20
2018-01-21T10:50:48.671Z,7.90
2018-01-21T10:53:16.112Z,7.80
2018-01-21T10:55:43.529Z,7.80
2018-01-21T10:58:11.724Z,7.30
2018-01-21T11:00:45.704Z,7.50
2018-01-21T11:03:13.160Z,7.40
2018-01-21T11:05:40.575Z,7.50
2018-01-21T11:08:08.012Z,7.90
2018-01-21T11:10:35.443Z,8.00
2018-01-21T11:13:03.740Z,8.60
2018-01-21T11:15:31.145Z,8.60
2018-01-21T11:17:58.587Z,8.60
2018-01-21T11:20:26.013Z,8.60
2018-01-21T11:22:54.216Z,8.20
2018-01-21T11:25:21.656Z,8.10
2018-01-21T11:27:49.127Z,8.10
2018-01-21T11:30:16.536Z,8.00
2018-01-21T11:32:43.964Z,8.10
2018-01-21T11:35:11.398Z,8.00
2018-01-21T11:37:38.851Z,7.70
2018-01-21T11:40:06.292Z,8.20
2018-01-21T11:42:34.476Z,9.00
2018-01-21T11:45:01.925Z,9.00
2018-01-21T11:47:30.137Z,9.10
2018-01-21T11:49:57.564Z,8.80
2018-01-21T11:52:24.997Z,8.80
2018-01-21T11:54:53.196Z,10.40
2018-01-21T11:57:20.644Z,10.50
2018-01-21T11:59:48.848Z,10.20
2018-01-21T12:02:16.261Z,10.20
2018-01-21T12:04:44.484Z,10.00
2018-01-21T12:07:11.897Z,10.00
2018-01-21T12:09:40.092Z,12.10
2018-01-21T12:12:07.562Z,12.10
2018-01-21T12:14:34.977Z,12.80
2018-01-21T12:17:03.177Z,13.70
2018-01-21T12:19:30.615Z,13.70
2018-01-21T12:21:58.815Z,13.80
2018-01-21T12:24:26.301Z,13.80
2018-01-21T12:26:53.750Z,12.70
2018-01-21T12:29:21.528Z,13.30
2018-01-21T12:31:49.009Z,13.70
2018-01-21T12:34:16.436Z,14.10
2018-01-21T12:36:43.863Z,13.00
2018-01-21T12:39:11.329Z,13.10
2018-01-21T12:41:38.760Z,13.60
2018-01-21T12:44:06.988Z,15.30
2018-01-21T12:46:34.439Z,15.30
2018-01-21T12:49:01.872Z,16.20
2018-01-21T12:51:30.235Z,16.70
2018-01-21T12:53:58.438Z,16.90
2018-01-21T12:56:25.853Z,16.90
2018-01-21T12:58:54.072Z,16.90
2018-01-21T13:01:21.527Z,16.80
2018-01-21T13:03:48.955Z,16.20
2018-01-21T13:06:17.159Z,12.40
2018-01-21T13:08:44.603Z,12.40
2018-01-21T13:11:12.027Z,11.50
2018-01-21T13:13:39.449Z,11.20
2018-01-21T13:16:06.917Z,10.60
2018-01-21T13:18:34.357Z,10.50
2018-01-21T13:21:01.793Z,10.50
2018-01-21T13:23:30.145Z,9.70
2018-01-21T13:25:58.340Z,9.90
2018-01-21T13:28:25.765Z,9.90
2018-01-21T13:30:53.962Z,9.60
2018-01-21T13:33:22.153Z,9.60
2018-01-21T13:35:49.919Z,9.60
2018-01-21T13:38:17.339Z,10.00
2018-01-21T13:40:44.776Z,10.30
2018-01-21T13:43:12.212Z,10.40
2018-01-21T13:45:39.660Z,10.30
2018-01-21T13:48:07.090Z,10.40
2018-01-21T13:50:35.288Z,10.30
2018-01-21T13:53:02.734Z,10.30
2018-01-21T13:55:30.409Z,10.60
2018-01-21T13:57:57.829Z,10.60
2018-01-21T14:00:26.066Z,10.20
2018-01-21T14:02:53.498Z,10.20
2018-01-21T14:05:20.956Z,10.60
2018-01-21T14:07:48.381Z,10.90
2018-01-21T14:10:16.602Z,10.60
2018-01-21T14:12:44.013Z,10.60
2018-01-21T14:15:12.199Z,11.00
2018-01-21T14:17:39.647Z,11.00
2018-01-21T14:20:07.846Z,12.00
2018-01-21T14:22:35.616Z,12.00
2018-01-21T14:25:03.073Z,11.80
2018-01-21T14:27:30.488Z,11.80
2018-01-21T14:29:57.920Z,12.00
2018-01-21T14:32:25.344Z,12.00
2018-01-21T14:34:52.789Z,11.60
2018-01-21T14:37:20.236Z,11.60
2018-01-21T14:39:48.437Z,11.20
2018-01-21T14:42:15.861Z,11.10
2018-01-21T14:44:44.070Z,11.00
2018-01-21T14:47:11.490Z,10.90
2018-01-21T14:49:39.697Z,10.90
2018-01-21T14:52:07.125Z,10.80
2018-01-21T14:54:35.330Z,11.10
2018-01-21T14:57:02.766Z,11.10
2018-01-21T14:59:30.301Z,11.10
2018-01-21T15:01:57.745Z,10.80
2018-01-21T15:04:25.181Z,11.00
2018-01-21T15:06:53.377Z,11.20
2018-01-21T15:09:20.827Z,11.10
2018-01-21T15:11:48.261Z,11.20
2018-01-21T15:14:15.684Z,11.20
2018-01-21T15:16:43.116Z,11.20
2018-01-21T15:19:10.548Z,11.30
2018-01-21T15:21:37.988Z,11.30
2018-01-21T15:24:05.425Z,11.10
2018-01-21T15:26:32.892Z,11.10
2018-01-21T15:29:01.072Z,11.00
2018-01-21T15:31:28.508Z,11.00
2018-01-21T15:33:56.709Z,11.10
2018-01-21T15:36:24.144Z,11.10
2018-01-21T15:38:51.567Z,11.10
2018-01-21T15:41:19.776Z,11.10
2018-01-21T15:43:47.213Z,11.10
2018-01-21T15:46:15.428Z,10.90
2018-01-21T15:48:43.460Z,10.90
2018-01-21T15:51:11.653Z,10.60
2018-01-21T15:53:39.085Z,10.60
2018-01-21T15:56:07.298Z,10.40
2018-01-21T15:58:34.725Z,10.40
2018-01-21T16:01:02.921Z,10.00
2018-01-21T16:03:30.420Z,10.00
2018-01-21T16:05:57.860Z,9.90
2018-01-21T16:08:25.320Z,10.10
2018-01-21T16:10:52.774Z,10.00
2018-01-21T16:13:20.208Z,10.20
2018-01-21T16:15:47.665Z,10.10
2018-01-21T16:18:15.104Z,10.00
2018-01-21T16:20:43.380Z,9.70
2018-01-21T16:23:10.736Z,9.70
2018-01-21T16:25:38.943Z,9.80
2018-01-21T16:28:06.368Z,9.80
2018-01-21T16:30:34.578Z,9.80
2018-01-21T16:33:02.000Z,9.80
2018-01-21T16:35:31.131Z,9.80
2018-01-21T16:38:10.548Z,9.80
2018-01-21T16:40:37.998Z,9.90
2018-01-21T16:43:06.194Z,9.90
2018-01-21T16:45:33.629Z,9.90
2018-01-21T16:48:01.831Z,9.70
2018-01-21T16:50:29.262Z,9.70
2018-01-21T16:52:57.449Z,9.40
2018-01-21T16:55:24.869Z,9.40
2018-01-21T16:57:52.305Z,9.50
2018-01-21T17:00:19.736Z,9.60
2018-01-21T17:02:47.197Z,9.40
2018-01-21T17:05:14.616Z,9.40
2018-01-21T17:07:42.809Z,9.40
2018-01-21T17:10:10.257Z,9.40
2018-01-21T17:12:37.689Z,9.30
2018-01-21T17:15:05.124Z,9.20
2018-01-21T17:17:32.556Z,9.20
2018-01-21T17:19:59.992Z,9.00
2018-01-21T17:22:27.417Z,8.90
2018-01-21T17:24:54.863Z,8.90
2018-01-21T17:27:22.304Z,8.80
2018-01-21T17:29:49.741Z,8.70
2018-01-21T17:32:17.209Z,8.70
2018-01-21T17:34:44.632Z,8.40
2018-01-21T17:37:12.057Z,8.30
2018-01-21T17:39:39.500Z,8.30
2018-01-21T17:42:06.930Z,8.20
2018-01-21T17:44:34.367Z,8.20
2018-01-21T17:47:01.800Z,7.80
2018-01-21T17:49:30.916Z,7.70
2018-01-21T17:51:58.346Z,7.70
2018-01-21T17:54:25.784Z,7.60
2018-01-21T17:56:53.230Z,7.50
2018-01-21T17:59:20.677Z,7.20
2018-01-21T18:01:48.125Z,7.20
2018-01-21T18:04:15.613Z,7.30
2018-01-21T18:06:43.063Z,7.30
2018-01-21T18:09:11.261Z,7.20
2018-01-21T18:11:38.692Z,7.20
2018-01-21T18:14:06.625Z,7.30
2018-01-21T18:16:34.073Z,7.50
2018-01-21T18:19:01.501Z,7.50
2018-01-21T18:21:28.930Z,7.50
2018-01-21T18:23:56.392Z,7.20
2018-01-21T18:26:23.836Z,7.10
2018-01-21T18:28:51.277Z,7.30
2018-01-21T18:31:18.691Z,7.40
2018-01-21T18:33:46.133Z,7.40
2018-01-21T18:36:13.561Z,7.30
2018-01-21T18:38:41.009Z,7.30
2018-01-21T18:41:08.434Z,7.00
2018-01-21T18:43:36.633Z,7.20
2018-01-21T18:46:04.064Z,7.10
2018-01-21T18:48:32.265Z,7.00
2018-01-21T18:50:59.738Z,7.00
2018-01-21T18:53:27.172Z,6.90
2018-01-21T18:55:54.717Z,6.80
2018-01-21T18:58:22.916Z,6.70
2018-01-21T19:00:50.345Z,6.70
2018-01-21T19:03:18.540Z,6.80
2018-01-21T19:05:45.969Z,6.80
2018-01-21T19:08:14.165Z,6.70
2018-01-21T19:10:41.639Z,6.70
2018-01-21T19:13:09.064Z,6.90
2018-01-21T19:15:37.269Z,6.80
2018-01-21T19:18:04.687Z,6.80
2018-01-21T19:20:32.129Z,6.90
2018-01-21T19:22:59.583Z,7.20
2018-01-21T19:25:27.021Z,7.20
2018-01-21T19:27:54.448Z,7.20
2018-01-21T19:30:21.882Z,7.00
2018-01-21T19:32:50.066Z,7.10
2018-01-21T19:35:18.261Z,6.80
2018-01-21T19:37:45.688Z,6.80
2018-01-21T19:40:16.432Z,7.30
2018-01-21T19:42:47.036Z,7.00
2018-01-21T19:45:20.192Z,7.00
2018-01-21T19:47:47.619Z,6.90
2018-01-21T19:50:15.053Z,6.90
2018-01-21T19:52:42.514Z,6.70
2018-01-21T19:55:10.725Z,6.60
2018-01-21T19:57:38.160Z,6.60
2018-01-21T20:00:06.362Z,7.00
2018-01-21T20:02:33.809Z,6.90
2018-01-21T20:05:01.237Z,6.80
2018-01-21T20:07:29.460Z,7.40
2018-01-21T20:09:56.892Z,7.40
2018-01-21T20:12:25.077Z,6.80
2018-01-21T20:14:52.524Z,6.80
2018-01-21T20:17:19.950Z,6.60
2018-01-21T20:19:47.383Z,6.60
2018-01-21T20:22:14.832Z,7.00
2018-01-21T20:24:42.244Z,7.00
2018-01-21T20:27:10.725Z,7.30
2018-01-21T20:29:39.460Z,7.30
2018-01-21T20:32:06.972Z,7.40
2018-01-21T20:34:35.755Z,7.80
2018-01-21T20:37:04.267Z,8.00
2018-01-21T20:39:31.701Z,7.90
2018-01-21T20:42:00.323Z,8.10
2018-01-21T20:44:28.182Z,8.10
2018-01-21T20:46:55.636Z,8.20
2018-01-21T20:49:23.278Z,8.10
2018-01-21T20:51:56.588Z,8.20
2018-01-21T20:54:30.924Z,8.20
2018-01-21T20:56:58.918Z,8.20
2018-01-21T20:59:26.512Z,8.20
2018-01-21T21:01:55.293Z,8.20
2018-01-21T21:04:23.527Z,8.20
2018-01-21T21:06:51.837Z,8.20
2018-01-21T21:09:21.053Z,8.30
2018-01-21T21:11:50.284Z,8.20
2018-01-21T21:14:18.315Z,8.10
2018-01-21T21:16:46.055Z,8.20
2018-01-21T21:19:13.552Z,8.20
2018-01-21T21:21:41.316Z,8.20
2018-01-21T21:24:09.618Z,8.20
2018-01-21T21:26:37.609Z,8.20
2018-01-21T21:29:05.589Z,8.20
2018-01-21T21:31:33.041Z,8.20
2018-01-21T21:34:00.479Z,8.20
2018-01-21T21:36:27.900Z,8.20
2018-01-21T21:38:56.105Z,8.20
2018-01-21T21:41:23.536Z,8.10
2018-01-21T21:43:51.731Z,8.10
2018-01-21T21:46:19.169Z,8.10
2018-01-21T21:48:47.352Z,8.00
2018-01-21T21:51:14.789Z,8.00
2018-01-21T21:53:42.977Z,7.70
2018-01-21T21:56:11.180Z,7.80
2018-01-21T21:58:38.609Z,7.80
2018-01-21T22:01:06.914Z,7.70
2018-01-21T22:03:34.324Z,7.70
2018-01-21T22:06:01.756Z,7.60
2018-01-21T22:08:29.191Z,7.50
2018-01-21T22:10:56.646Z,7.30
2018-01-21T22:13:24.056Z,7.20
2018-01-21T22:15:52.264Z,6.80
2018-01-21T22:18:19.696Z,6.80
2018-01-21T22:20:47.900Z,7.10
2018-01-21T22:23:15.330Z,7.10
2018-01-21T22:25:43.538Z,7.10
2018-01-21T22:28:10.963Z,7.10
2018-01-21T22:30:39.172Z,7.30
2018-01-21T22:33:06.747Z,7.30
2018-01-21T22:35:34.172Z,7.40
2018-01-21T22:38:01.613Z,7.50
2018-01-21T22:40:29.796Z,7.40
2018-01-21T22:42:57.228Z,7.30
2018-01-21T22:45:24.670Z,7.80
2018-01-21T22:47:52.112Z,7.90
2018-01-21T22:50:19.553Z,8.20
2018-01-21T22:52:47.021Z,8.20
2018-01-21T22:55:14.488Z,7.90
2018-01-21T22:57:42.619Z,7.90
2018-01-21T23:00:10.041Z,7.80
2018-01-21T23:02:37.535Z,8.10
2018-01-21T23:05:04.905Z,7.90
2018-01-21T23:07:32.336Z,7.60
2018-01-21T23:10:00.531Z,7.30
2018-01-21T23:12:27.961Z,7.30
2018-01-21T23:14:56.148Z,7.10
2018-01-21T23:17:24.355Z,7.00
2018-01-21T23:19:51.806Z,7.00
2018-01-21T23:22:19.267Z,6.40
2018-01-21T23:24:46.697Z,6.30
2018-01-21T23:27:14.123Z,6.50
2018-01-21T23:29:41.561Z,6.40
2018-01-21T23:32:09.765Z,6.30
2018-01-21T23:34:37.197Z,6.30
2018-01-21T23:37:04.629Z,6.50
2018-01-21T23:39:32.052Z,6.40
2018-01-21T23:42:00.248Z,6.30
2018-01-21T23:44:27.677Z,6.30
2018-01-21T23:46:55.881Z,6.70
2018-01-21T23:49:23.309Z,6.70
2018-01-21T23:51:51.513Z,6.60
2018-01-21T23:54:18.955Z,6.60
2018-01-21T23:56:47.158Z,7.00
2018-01-21T23:59:14.593Z,7.00
